createdAt,value
2023-04-10T00:00:06.809Z,98.40
2023-04-10T00:02:34.663Z,105.93
2023-04-10T00:05:02.223Z,95.90
2023-04-10T00:07:29.694Z,95.70
2023-04-10T00:09:57.142Z,97.03
2023-04-10T00:12:25.314Z,95.90
2023-04-10T00:14:52.719Z,96.53
2023-04-10T00:17:20.404Z,96.10
2023-04-10T00:19:47.796Z,97.87
2023-04-10T00:22:15.551Z,96.10
2023-04-10T00:24:42.935Z,100.93
2023-04-10T00:27:10.568Z,89.63
2023-04-10T00:29:37.887Z,101.60
2023-04-10T00:32:05.607Z,98.63
2023-04-10T00:34:33.036Z,94.63
2023-04-10T00:37:00.683Z,93.50
2023-04-10T00:39:28.154Z,90.00
2023-04-10T00:41:55.804Z,90.10
2023-04-10T00:44:23.238Z,91.60
2023-04-10T00:46:50.628Z,95.67
2023-04-10T00:49:18.592Z,93.73
2023-04-10T00:51:47.934Z,94.87
2023-04-10T00:54:15.584Z,92.27
2023-04-10T00:56:45.435Z,88.67
2023-04-10T00:59:12.888Z,88.50
2023-04-10T01:01:40.007Z,95.83
2023-04-10T01:04:08.438Z,90.00
2023-04-10T01:06:59.711Z,91.37
2023-04-10T01:09:42.269Z,86.03
2023-04-10T01:12:24.633Z,89.60
2023-04-10T01:15:38.096Z,86.07
2023-04-10T01:18:21.707Z,83.70
2023-04-10T01:20:49.128Z,92.70
2023-04-10T01:23:46.727Z,83.23
2023-04-10T01:26:17.580Z,82.37
2023-04-10T01:29:01.885Z,94.77
2023-04-10T01:32:11.961Z,81.77
2023-04-10T01:34:50.701Z,87.60
2023-04-10T01:37:27.970Z,94.67
2023-04-10T01:40:07.120Z,87.77
2023-04-10T01:42:40.445Z,86.17
2023-04-10T01:45:09.584Z,85.37
2023-04-10T01:47:37.340Z,92.93
2023-04-10T01:50:05.305Z,86.27
2023-04-10T01:52:34.437Z,92.47
2023-04-10T01:55:03.107Z,87.87
2023-04-10T01:57:31.902Z,86.57
2023-04-10T01:59:59.489Z,88.83
2023-04-10T02:02:30.908Z,86.70
2023-04-10T02:04:58.448Z,88.77
2023-04-10T02:07:37.194Z,91.07
2023-04-10T02:10:23.625Z,95.77
2023-04-10T02:13:00.311Z,84.50
2023-04-10T02:15:32.463Z,85.90
2023-04-10T02:18:00.387Z,90.60
2023-04-10T02:20:28.084Z,82.73
2023-04-10T02:22:55.750Z,82.83
2023-04-10T02:25:23.182Z,89.87
2023-04-10T02:27:50.558Z,89.90
2023-04-10T02:30:17.987Z,85.50
2023-04-10T02:32:45.408Z,89.17
2023-04-10T02:35:12.790Z,85.43
2023-04-10T02:37:40.441Z,92.90
2023-04-10T02:40:08.292Z,83.10
2023-04-10T02:42:35.922Z,85.13
2023-04-10T02:45:03.378Z,88.27
2023-04-10T02:47:31.116Z,86.67
2023-04-10T02:49:58.546Z,91.67
2023-04-10T02:52:25.737Z,88.70
2023-04-10T02:54:53.136Z,89.77
2023-04-10T02:57:21.452Z,85.03
2023-04-10T02:59:51.595Z,86.33
2023-04-10T03:02:19.093Z,87.77
2023-04-10T03:04:46.534Z,84.93
2023-04-10T03:07:13.952Z,85.13
2023-04-10T03:09:41.343Z,83.30
2023-04-10T03:12:08.694Z,86.10
2023-04-10T03:14:36.321Z,88.47
2023-04-10T03:17:03.895Z,84.23
2023-04-10T03:19:31.421Z,84.57
2023-04-10T03:21:58.754Z,83.53
2023-04-10T03:24:27.185Z,79.27
2023-04-10T03:26:54.890Z,85.23
2023-04-10T03:29:22.636Z,80.63
2023-04-10T03:31:50.068Z,85.70
2023-04-10T03:34:17.402Z,80.80
2023-04-10T03:36:44.759Z,84.87
2023-04-10T03:39:12.162Z,83.13
2023-04-10T03:41:39.481Z,82.23
2023-04-10T03:44:06.830Z,86.97
2023-04-10T03:46:34.239Z,84.63
2023-04-10T03:49:01.618Z,85.27
2023-04-10T03:51:28.992Z,79.27
2023-04-10T03:53:56.490Z,82.57
2023-04-10T03:56:24.064Z,79.77
2023-04-10T03:58:51.462Z,84.17
2023-04-10T04:01:18.916Z,84.40
2023-04-10T04:03:46.482Z,87.60
2023-04-10T04:06:14.002Z,82.60
2023-04-10T04:08:41.410Z,88.30
2023-04-10T04:11:08.874Z,81.47
2023-04-10T04:13:36.223Z,82.90
2023-04-10T04:16:03.661Z,83.73
2023-04-10T04:18:31.039Z,88.77
2023-04-10T04:20:58.370Z,83.67
2023-04-10T04:23:25.840Z,84.27
2023-04-10T04:25:54.447Z,80.20
2023-04-10T04:28:22.168Z,82.87
2023-04-10T04:30:49.613Z,83.00
2023-04-10T04:33:16.995Z,79.30
2023-04-10T04:35:44.020Z,76.87
2023-04-10T04:38:11.058Z,87.50
2023-04-10T04:40:38.435Z,82.30
2023-04-10T04:43:05.958Z,84.27
2023-04-10T04:45:33.328Z,84.77
2023-04-10T04:48:00.631Z,87.33
2023-04-10T04:50:28.367Z,93.87
2023-04-10T04:52:56.210Z,87.67
2023-04-10T04:55:24.276Z,84.27
2023-04-10T04:57:51.628Z,83.83
2023-04-10T05:00:21.473Z,84.13
2023-04-10T05:02:48.800Z,80.20
2023-04-10T05:05:16.777Z,87.50
2023-04-10T05:07:44.271Z,90.60
2023-04-10T05:10:12.296Z,306.60
2023-04-10T05:12:43.673Z,225.67
2023-04-10T05:15:14.307Z,271.30
2023-04-10T05:17:42.083Z,236.17
2023-04-10T05:20:11.020Z,130.00
2023-04-10T05:22:38.673Z,312.40
2023-04-10T05:25:06.859Z,287.87
2023-04-10T05:27:34.872Z,341.87
2023-04-10T05:30:02.679Z,87.67
2023-04-10T05:32:30.085Z,82.63
2023-04-10T05:34:57.570Z,90.40
2023-04-10T05:37:25.432Z,85.60
2023-04-10T05:39:52.784Z,87.67
2023-04-10T05:42:21.542Z,85.73
2023-04-10T05:44:51.889Z,91.47
2023-04-10T05:47:19.136Z,83.73
2023-04-10T05:49:46.564Z,89.53
2023-04-10T05:52:15.773Z,86.93
2023-04-10T05:54:43.185Z,88.23
2023-04-10T05:57:10.633Z,87.80
2023-04-10T05:59:38.062Z,86.47
2023-04-10T06:02:06.244Z,89.23
2023-04-10T06:04:34.100Z,86.37
2023-04-10T06:07:01.736Z,88.37
2023-04-10T06:09:29.138Z,87.27
2023-04-10T06:11:56.880Z,93.47
2023-04-10T06:14:24.409Z,93.17
2023-04-10T06:16:51.889Z,96.40
2023-04-10T06:19:19.274Z,91.03
2023-04-10T06:21:46.926Z,89.03
2023-04-10T06:24:14.447Z,88.67
2023-04-10T06:26:41.869Z,97.67
2023-04-10T06:29:09.294Z,100.50
2023-04-10T06:31:36.795Z,96.87
2023-04-10T06:34:04.228Z,96.70
2023-04-10T06:36:31.751Z,98.23
2023-04-10T06:38:59.200Z,103.90
2023-04-10T06:41:26.594Z,96.83
2023-04-10T06:43:54.212Z,101.10
2023-04-10T06:46:21.698Z,102.33
2023-04-10T06:48:49.127Z,104.13
2023-04-10T06:51:16.961Z,105.40
2023-04-10T06:53:44.540Z,106.43
2023-04-10T06:56:12.147Z,109.13
2023-04-10T06:58:39.952Z,107.73
2023-04-10T07:01:07.411Z,107.23
2023-04-10T07:03:35.914Z,109.03
2023-04-10T07:06:03.538Z,110.73
2023-04-10T07:08:31.328Z,117.27
2023-04-10T07:10:59.005Z,111.97
2023-04-10T07:13:26.506Z,118.43
2023-04-10T07:15:54.020Z,113.90
2023-04-10T07:18:21.528Z,121.87
2023-04-10T07:20:50.196Z,119.87
2023-04-10T07:23:17.789Z,120.33
2023-04-10T07:25:45.182Z,121.33
2023-04-10T07:28:12.507Z,129.90
2023-04-10T07:30:40.097Z,123.37
2023-04-10T07:33:07.966Z,130.30
2023-04-10T07:35:35.579Z,128.07
2023-04-10T07:38:03.002Z,175.33
2023-04-10T07:40:30.423Z,125.70
2023-04-10T07:42:57.407Z,124.93
2023-04-10T07:45:24.897Z,132.83
2023-04-10T07:47:51.941Z,144.97
2023-04-10T07:50:19.181Z,168.00
2023-04-10T07:52:46.846Z,165.53
2023-04-10T07:55:14.000Z,142.90
2023-04-10T07:57:42.313Z,155.67
2023-04-10T08:00:10.096Z,199.87
2023-04-10T08:02:37.491Z,149.87
2023-04-10T08:05:05.453Z,190.03
2023-04-10T08:07:32.496Z,199.90
2023-04-10T08:09:59.446Z,170.97
2023-04-10T08:12:26.450Z,200.57
2023-04-10T08:14:53.556Z,170.20
2023-04-10T08:17:20.597Z,177.80
2023-04-10T08:19:47.624Z,189.93
2023-04-10T08:22:14.593Z,188.67
2023-04-10T08:24:41.546Z,198.57
2023-04-10T08:27:08.496Z,200.33
2023-04-10T08:29:35.509Z,228.57
2023-04-10T08:32:02.737Z,226.17
2023-04-10T08:34:29.738Z,242.02
2023-04-10T08:36:57.797Z,248.70
2023-04-10T08:39:24.889Z,231.95
2023-04-10T08:41:52.197Z,266.65
2023-04-10T08:44:19.172Z,273.45
2023-04-10T08:46:46.565Z,275.58
2023-04-10T08:49:39.714Z,293.58
2023-04-10T08:52:09.775Z,301.17
2023-04-10T08:54:39.205Z,313.35
2023-04-10T08:57:10.602Z,321.48
2023-04-10T08:59:38.077Z,318.60
2023-04-10T09:02:06.563Z,329.75
2023-04-10T09:04:33.698Z,348.27
2023-04-10T09:07:01.495Z,358.13
2023-04-10T09:09:32.422Z,375.25
2023-04-10T09:12:02.689Z,379.80
2023-04-10T09:14:33.783Z,357.63
2023-04-10T09:17:22.033Z,397.15
2023-04-10T09:19:54.764Z,393.02
2023-04-10T09:22:35.995Z,403.30
2023-04-10T09:25:05.004Z,413.40
2023-04-10T09:27:37.448Z,427.25
2023-04-10T09:30:07.068Z,458.00
2023-04-10T09:32:44.795Z,460.67
2023-04-10T09:35:14.301Z,440.98
2023-04-10T09:37:44.544Z,458.45
2023-04-10T09:40:25.675Z,494.35
2023-04-10T09:42:56.303Z,578.75
2023-04-10T09:45:23.350Z,475.98
2023-04-10T09:48:08.855Z,502.67
2023-04-10T09:50:43.697Z,523.90
2023-04-10T09:53:13.798Z,539.45
2023-04-10T09:55:42.505Z,532.20
2023-04-10T09:58:10.610Z,559.17
2023-04-10T10:00:44.757Z,550.55
2023-04-10T10:03:17.957Z,548.05
2023-04-10T10:05:51.534Z,557.17
2023-04-10T10:08:19.112Z,562.50
2023-04-10T10:10:53.970Z,571.80
2023-04-10T10:13:34.894Z,585.70
2023-04-10T10:16:11.483Z,595.75
2023-04-10T10:18:55.634Z,602.78
2023-04-10T10:21:24.271Z,589.53
2023-04-10T10:23:54.966Z,595.92
2023-04-10T10:26:23.742Z,603.55
2023-04-10T10:28:56.237Z,611.92
2023-04-10T10:31:24.477Z,622.08
2023-04-10T10:33:55.585Z,613.05
2023-04-10T10:36:23.342Z,652.58
2023-04-10T10:39:21.700Z,650.42
2023-04-10T10:42:01.877Z,652.22
2023-04-10T10:45:02.088Z,657.80
2023-04-10T10:47:33.111Z,664.00
2023-04-10T10:50:03.304Z,692.33
2023-04-10T10:52:57.497Z,705.15
2023-04-10T10:55:25.188Z,706.13
2023-04-10T10:57:57.648Z,730.40
2023-04-10T11:00:27.098Z,741.55
2023-04-10T11:03:09.421Z,741.97
2023-04-10T11:05:56.733Z,730.60
2023-04-10T11:08:55.376Z,745.30
2023-04-10T11:11:24.539Z,729.63
2023-04-10T11:13:57.975Z,739.95
2023-04-10T11:16:35.382Z,724.63
2023-04-10T11:19:14.339Z,744.60
2023-04-10T11:22:05.709Z,726.72
2023-04-10T11:24:53.388Z,726.78
2023-04-10T11:27:49.397Z,741.50
2023-04-10T11:30:32.088Z,748.08
2023-04-10T11:33:02.194Z,761.83
2023-04-10T11:35:31.636Z,786.85
2023-04-10T11:38:18.283Z,783.95
2023-04-10T11:41:02.419Z,796.05
2023-04-10T11:43:30.194Z,778.95
2023-04-10T11:46:06.280Z,789.40
2023-04-10T11:48:34.500Z,789.25
2023-04-10T11:51:09.168Z,794.75
2023-04-10T11:53:36.524Z,773.45
2023-04-10T11:56:04.601Z,773.88
2023-04-10T11:58:32.573Z,779.90
2023-04-10T12:01:05.025Z,766.70
2023-04-10T12:03:40.577Z,757.38
2023-04-10T12:06:14.064Z,747.22
2023-04-10T12:08:49.315Z,748.30
2023-04-10T12:11:20.581Z,730.25
2023-04-10T12:13:48.900Z,742.25
2023-04-10T12:16:16.156Z,752.47
2023-04-10T12:18:45.275Z,735.63
2023-04-10T12:21:12.704Z,740.00
2023-04-10T12:23:40.257Z,746.70
2023-04-10T12:26:14.386Z,738.25
2023-04-10T12:28:49.490Z,736.38
2023-04-10T12:31:16.631Z,727.92
2023-04-10T12:33:47.228Z,739.53
2023-04-10T12:36:30.059Z,750.95
2023-04-10T12:39:05.258Z,771.63
2023-04-10T12:41:34.935Z,747.33
2023-04-10T12:44:13.698Z,767.15
2023-04-10T12:46:43.540Z,769.03
2023-04-10T12:49:18.493Z,746.03
2023-04-10T12:51:52.961Z,744.38
2023-04-10T12:54:37.421Z,744.55
2023-04-10T12:57:06.425Z,752.92
2023-04-10T12:59:33.870Z,762.72
2023-04-10T13:02:01.678Z,752.75
2023-04-10T13:04:32.333Z,769.22
2023-04-10T13:06:59.404Z,749.33
2023-04-10T13:09:27.236Z,759.33
2023-04-10T13:11:54.628Z,753.95
2023-04-10T13:14:22.812Z,735.08
2023-04-10T13:16:50.303Z,737.42
2023-04-10T13:19:17.349Z,727.63
2023-04-10T13:21:44.698Z,728.42
2023-04-10T13:24:11.740Z,720.88
2023-04-10T13:26:39.166Z,735.92
2023-04-10T13:29:06.432Z,725.17
2023-04-10T13:31:33.651Z,729.10
2023-04-10T13:34:01.039Z,714.47
2023-04-10T13:36:28.322Z,727.95
2023-04-10T13:38:55.984Z,711.67
2023-04-10T13:41:23.981Z,715.92
2023-04-10T13:43:51.692Z,730.72
2023-04-10T13:46:19.303Z,729.10
2023-04-10T13:48:50.764Z,725.83
2023-04-10T13:51:18.295Z,703.00
2023-04-10T13:53:46.402Z,704.53
2023-04-10T13:56:14.302Z,700.65
2023-04-10T13:58:41.420Z,715.10
2023-04-10T14:01:08.928Z,707.67
2023-04-10T14:03:36.068Z,697.03
2023-04-10T14:06:03.233Z,707.92
2023-04-10T14:08:30.323Z,695.22
2023-04-10T14:10:57.629Z,698.05
2023-04-10T14:13:26.037Z,697.83
2023-04-10T14:15:53.763Z,694.85
2023-04-10T14:18:21.036Z,703.92
2023-04-10T14:20:48.961Z,682.60
2023-04-10T14:23:18.873Z,690.95
2023-04-10T14:25:46.721Z,692.15
2023-04-10T14:28:20.345Z,681.88
2023-04-10T14:30:49.968Z,689.28
2023-04-10T14:33:20.627Z,686.47
2023-04-10T14:35:48.553Z,679.75
2023-04-10T14:38:16.205Z,691.72
2023-04-10T14:40:46.066Z,683.63
2023-04-10T14:43:16.615Z,689.70
2023-04-10T14:45:44.133Z,698.97
2023-04-10T14:48:13.011Z,704.92
2023-04-10T14:50:40.943Z,688.15
2023-04-10T14:53:10.114Z,692.42
2023-04-10T14:55:37.607Z,683.97
2023-04-10T14:58:06.811Z,677.15
2023-04-10T15:00:36.233Z,684.83
2023-04-10T15:03:05.423Z,678.05
2023-04-10T15:05:33.013Z,679.22
2023-04-10T15:08:00.411Z,665.75
2023-04-10T15:10:30.864Z,668.63
2023-04-10T15:12:58.572Z,669.28
2023-04-10T15:15:25.914Z,677.42
2023-04-10T15:17:53.207Z,674.25
2023-04-10T15:20:20.643Z,684.83
2023-04-10T15:22:48.385Z,660.15
2023-04-10T15:25:15.586Z,665.03
2023-04-10T15:27:42.889Z,657.30
2023-04-10T15:30:10.438Z,669.38
2023-04-10T15:32:38.602Z,660.97
2023-04-10T15:35:06.764Z,658.88
2023-04-10T15:37:36.830Z,666.50
2023-04-10T15:40:07.613Z,664.65
2023-04-10T15:42:36.623Z,672.47
2023-04-10T15:45:04.425Z,657.47
2023-04-10T15:47:31.873Z,667.55
2023-04-10T15:49:59.607Z,669.42
2023-04-10T15:52:29.564Z,656.97
2023-04-10T15:54:57.678Z,665.97
2023-04-10T15:57:25.310Z,649.03
2023-04-10T15:59:53.942Z,676.72
2023-04-10T16:02:21.511Z,662.97
2023-04-10T16:04:49.296Z,666.35
2023-04-10T16:10:18.632Z,649.72
2023-04-10T16:12:46.042Z,679.42
2023-04-10T16:15:13.630Z,682.45
2023-04-10T16:17:40.709Z,681.47
2023-04-10T16:20:08.495Z,655.90
2023-04-10T16:22:36.717Z,647.35
2023-04-10T16:27:32.376Z,651.88
2023-04-10T16:29:59.389Z,666.58
2023-04-10T16:32:26.416Z,640.58
2023-04-10T16:34:53.447Z,640.25
2023-04-10T16:37:20.892Z,654.10
2023-04-10T16:39:48.001Z,635.67
2023-04-10T16:42:15.056Z,621.17
2023-04-10T16:44:42.106Z,637.08
2023-04-10T16:47:09.488Z,626.60
2023-04-10T16:49:36.860Z,625.83
2023-04-10T16:52:04.035Z,618.67
2023-04-10T16:54:31.182Z,615.28
2023-04-10T16:56:58.280Z,609.60
2023-04-10T16:59:25.480Z,606.55
2023-04-10T17:01:52.599Z,592.38
2023-04-10T17:04:21.201Z,573.50
2023-04-10T17:06:48.718Z,567.85
2023-04-10T17:09:16.509Z,578.05
2023-04-10T17:11:43.914Z,576.45
2023-04-10T17:14:13.405Z,580.63
2023-04-10T17:16:52.870Z,546.75
2023-04-10T17:19:20.330Z,590.58
2023-04-10T17:21:47.353Z,557.60
2023-04-10T17:24:14.703Z,559.72
2023-04-10T17:26:45.211Z,539.50
2023-04-10T17:29:12.370Z,536.95
2023-04-10T17:31:39.678Z,545.03
2023-04-10T17:34:07.313Z,540.75
2023-04-10T17:36:34.306Z,551.58
2023-04-10T17:39:01.429Z,538.47
2023-04-10T17:41:28.527Z,546.97
2023-04-10T17:43:55.638Z,547.75
2023-04-10T17:46:22.735Z,540.17
2023-04-10T17:48:49.940Z,524.83
2023-04-10T17:51:17.508Z,513.92
2023-04-10T17:53:46.249Z,503.50
2023-04-10T17:56:19.823Z,510.08
2023-04-10T17:58:47.291Z,495.45
2023-04-10T18:01:27.681Z,519.03
2023-04-10T18:03:55.040Z,501.50
2023-04-10T18:06:22.352Z,490.25
2023-04-10T18:08:50.173Z,499.17
2023-04-10T18:11:17.309Z,504.67
2023-04-10T18:13:44.584Z,493.30
2023-04-10T18:16:12.096Z,504.67
2023-04-10T18:18:41.873Z,493.70
2023-04-10T18:21:10.893Z,470.98
2023-04-10T18:23:39.709Z,488.20
2023-04-10T18:26:07.775Z,473.95
2023-04-10T18:28:36.537Z,476.75
2023-04-10T18:31:07.454Z,460.58
2023-04-10T18:33:34.677Z,467.08
2023-04-10T18:36:03.574Z,459.80
2023-04-10T18:38:30.941Z,480.95
2023-04-10T18:40:58.581Z,456.38
2023-04-10T18:43:27.659Z,484.10
2023-04-10T18:45:55.439Z,484.33
2023-04-10T18:48:25.796Z,469.88
2023-04-10T18:50:53.462Z,455.63
2023-04-10T18:53:22.206Z,458.50
2023-04-10T18:55:54.685Z,458.83
2023-04-10T18:58:22.455Z,472.17
2023-04-10T19:00:49.818Z,437.15
2023-04-10T19:03:17.078Z,474.13
2023-04-10T19:05:44.552Z,459.55
2023-04-10T19:08:15.789Z,446.02
2023-04-10T19:10:43.423Z,446.17
2023-04-10T19:13:12.137Z,469.35
2023-04-10T19:15:45.493Z,449.27
2023-04-10T19:18:14.890Z,461.52
2023-04-10T19:20:51.003Z,445.05
2023-04-10T19:23:20.705Z,450.10
2023-04-10T19:28:34.946Z,456.58
2023-04-10T19:31:02.089Z,461.02
2023-04-10T19:33:30.068Z,444.98
2023-04-10T19:35:58.253Z,455.73
2023-04-10T19:38:26.688Z,453.98
2023-04-10T19:40:54.852Z,449.88
2023-04-10T19:43:22.189Z,471.88
2023-04-10T19:45:49.297Z,462.48
2023-04-10T19:48:16.749Z,470.95
2023-04-10T19:50:43.854Z,482.25
2023-04-10T19:53:15.730Z,465.17
2023-04-10T19:55:44.816Z,458.42
2023-04-10T19:58:25.347Z,452.98
2023-04-10T20:01:08.961Z,479.35
2023-04-10T20:03:37.902Z,456.08
2023-04-10T20:06:10.090Z,458.17
2023-04-10T20:08:37.302Z,453.40
2023-04-10T20:11:07.619Z,483.23
2023-04-10T20:13:35.383Z,442.17
2023-04-10T20:16:03.191Z,451.92
2023-04-10T20:18:32.096Z,448.48
2023-04-10T20:20:59.192Z,468.73
2023-04-10T20:23:26.239Z,459.48
2023-04-10T20:25:53.336Z,470.27
2023-04-10T20:28:20.389Z,449.95
2023-04-10T20:30:47.433Z,463.10
2023-04-10T20:33:14.540Z,472.73
2023-04-10T20:35:41.923Z,458.58
2023-04-10T20:38:09.149Z,460.52
2023-04-10T20:40:36.176Z,502.60
2023-04-10T20:43:03.198Z,454.67
2023-04-10T20:45:30.810Z,457.90
2023-04-10T20:47:58.314Z,444.27
2023-04-10T20:50:25.337Z,445.10
2023-04-10T20:52:52.368Z,441.48
2023-04-10T20:55:19.725Z,437.02
2023-04-10T20:57:47.042Z,437.90
2023-04-10T21:00:14.811Z,449.05
2023-04-10T21:02:42.341Z,427.95
2023-04-10T21:05:09.764Z,436.20
2023-04-10T21:07:37.111Z,421.20
2023-04-10T21:10:04.963Z,448.77
2023-04-10T21:12:31.942Z,414.10
2023-04-10T21:14:59.259Z,435.15
2023-04-10T21:17:31.338Z,430.67
2023-04-10T21:19:59.611Z,421.27
2023-04-10T21:22:29.689Z,422.33
2023-04-10T21:24:57.166Z,399.27
2023-04-10T21:27:24.575Z,417.27
2023-04-10T21:29:51.958Z,398.50
2023-04-10T21:32:19.395Z,427.05
2023-04-10T21:34:47.114Z,402.30
2023-04-10T21:37:14.517Z,400.75
2023-04-10T21:39:42.097Z,413.75
2023-04-10T21:42:09.455Z,396.95
2023-04-10T21:44:36.835Z,411.92
2023-04-10T21:47:04.523Z,402.88
2023-04-10T21:49:31.929Z,394.85
2023-04-10T21:51:59.395Z,385.00
2023-04-10T21:54:26.765Z,393.30
2023-04-10T21:56:53.741Z,395.70
2023-04-10T21:59:20.731Z,405.33
2023-04-10T22:01:48.262Z,381.80
2023-04-10T22:04:15.977Z,393.67
2023-04-10T22:06:43.081Z,401.55
2023-04-10T22:09:10.435Z,403.70
2023-04-10T22:11:39.255Z,378.90
2023-04-10T22:14:15.975Z,386.40
2023-04-10T22:16:45.692Z,401.52
2023-04-10T22:19:12.694Z,395.13
2023-04-10T22:21:39.676Z,399.08
2023-04-10T22:24:07.321Z,391.13
2023-04-10T22:26:35.248Z,387.95
2023-04-10T22:29:04.090Z,389.92
2023-04-10T22:31:31.210Z,378.50
2023-04-10T22:33:58.886Z,386.10
2023-04-10T22:36:33.657Z,395.58
2023-04-10T22:39:01.114Z,391.85
2023-04-10T22:41:29.618Z,373.33
2023-04-10T22:43:56.982Z,383.50
2023-04-10T22:46:24.225Z,373.02
2023-04-10T22:48:51.645Z,383.70
2023-04-10T22:51:18.989Z,367.80
2023-04-10T22:53:46.443Z,369.73
2023-04-10T22:56:14.488Z,359.83
2023-04-10T22:58:41.956Z,344.50
2023-04-10T23:01:11.759Z,352.15
2023-04-10T23:03:39.234Z,336.05
2023-04-10T23:06:06.948Z,338.55
2023-04-10T23:08:34.111Z,341.73
2023-04-10T23:11:01.566Z,343.88
2023-04-10T23:13:28.971Z,332.92
2023-04-10T23:15:56.706Z,327.58
2023-04-10T23:18:23.778Z,334.95
2023-04-10T23:20:51.276Z,316.25
2023-04-10T23:23:18.692Z,317.88
2023-04-10T23:25:47.542Z,323.83
2023-04-10T23:28:14.961Z,311.55
2023-04-10T23:30:42.745Z,298.15
2023-04-10T23:33:10.169Z,305.08
2023-04-10T23:35:37.620Z,310.35
2023-04-10T23:38:05.051Z,311.08
2023-04-10T23:40:32.432Z,280.63
2023-04-10T23:42:59.460Z,303.05
2023-04-10T23:45:26.862Z,300.15
2023-04-10T23:47:54.546Z,302.92
2023-04-10T23:50:21.923Z,296.85
2023-04-10T23:52:52.425Z,305.08
2023-04-10T23:55:20.035Z,288.10
2023-04-10T23:57:47.439Z,297.10
